Scroll down
FLIGHT INFORMATION
American Airlines

AAL115

At Arrival Gate

SKBO
 SEQM
DATE: 2020-07-11
GATE: 
GATE DEPARTURE: 17:19
TAKEOFF: 17:40
DATE: 2020-07-11
GATE:  -
LANDING: 18:51
GATE ARRIVAL: 18:58
FLIGHT DATA
Speed: 
484 kts
Altitude: 
32,013 ft
Stage Length: 
384.2 nm
Block Time: 
1.6 hrs
Flight Time: 
1.2 hrs
Fuel Used: 
7,661 lb
Cleared Route: SKBO BO601 BO602 BO607 KAMIS LOTOA GIR MUGBU NIGMO ISKED TITGU VUROR MER PSO GAVEK IPI DUBKU ANBAL QIT RW36
TRACK DATA
50,000 ft 1,000 kts
AIRCRAFT INFO AND CUMULATIVE STATS
Aircraft Type: 
B738BW
Registration: 
SELCAL: 
AJEQ
MSN/LN: 
31160 / 4273
Operator: 
Total Flights: 
8
Total Block Time: 
11.9 hrs
Total Flight Time: 
10.1 hrs
Total Fuel Used: 
62,149 lb
DATALINK LOG | Newest first | Current as of: 2022-09-29 23:12:24
LABEL SEQUENCE CONTENT Dn/Up
QC173318:51▼ Dn
2U1609SEQM 111707Z 11305KT 9999 -RA BKN036 10/04 A3022 RMK ADVANCED INTERPOLATION▲ Up
2S4158SEQM▼ Dn
2U1537SEQM 111707Z 11305KT 9999 -RA BKN036 10/04 A3022 RMK ADVANCED INTERPOLATION▲ Up
2S3956SEQM▼ Dn
5R3855VUROR 18:12z FL319 MER 18:14z PSO M0.79 13.1 -37 / RW36 18:44z▼ Dn
A33804CLEARED TO SEQM VIA SKBO SEQM AAL115 N910NN . SQUAWK .▲ Up
B33754SKBO SEQM AAL115 N910NN ▼ Dn
QB062317:40▼ Dn
QA450317:19 18▼ Dn
Q04402[LINK ACK]▲ Up
Q04402[LINK TEST]▼ Dn


AIRCRAFT HISTORY
FLIGHT DATE FLIGHT NO. ORIGIN DESTINATION CLEARED ROUTE BLOCK TIME FLIGHT TIME FUEL USED PILOT
2021-10-10AAL1010KPSP KSAN KPSP TRM WARNE JLI CANNO BARET RYAHH HAILE MZB KSAN0.6 hrs0.4 hrs3,327 lbKevin Hall
2021-10-10AAL1010KSAN KPSP KSAN JLI WARNE TRM KPSP0.6 hrs0.4 hrs3,667 lbKevin Hall
2021-10-09AAL1009MMAA KSAN MMAA ACA VIDRU AGLON NUXCO OLULA PEKSI ALIPO UPN ONGEL EBDEG GDL TEILA SEDEM AMAVO RADAP KEDMA BRISA USDAD MZT GAMOS MELBO DANOP CUL BOKTA LERIV KIPAX KEBEX EMANI CEN USBEN SEBEK MIURA HMO OMTIB LIDUK PPE AMUDI MXL NOVOS IPL IPL KSAN3.4 hrs3.2 hrs20,188 lbKevin Hall
2021-10-09AAL1009MSLP MMAA MSLP DUNEL DUPES SJO KAVIT TECUN TAP PENVA IPSUM DURDO HUX PXM ANVAN MMAA1.8 hrs1.7 hrs11,024 lbKevin Hall
2021-10-07AAL1007MROC MSLP MROC LIB ORADA ELENA ARLEN ALTEG AMUVO MSLP1.2 hrs1.1 hrs7,420 lbKevin Hall
2021-10-05AAL1005MPTO MROC SIMA1A SIMAN DCT PUDOS DCT ISEBA CUAR4I1.1 hrs0.7 hrs0 lbKevin Hall
2021-10-05AAL1005SEQM MPTO SEQM NEGAL ENSOL TCO TOKUT MILAT SIRIL MPTO1.6 hrs1.4 hrs8,863 lbKevin Hall
2020-07-11AAL115SKBO SEQM SKBO BO601 BO602 BO607 KAMIS LOTOA GIR MUGBU NIGMO ISKED TITGU VUROR MER PSO GAVEK IPI DUBKU ANBAL QIT RW361.6 hrs1.2 hrs7,661 lbRoberto Stopnicki